sensor_id;sensor_type;location;lat;lon;timestamp;P1;durP1;ratioP1;P2;durP2;ratioP2
3415;SDS011;1721;51.238;9.562;2023-06-26T00:00:02;8.93;;;3.80;;
3415;SDS011;1721;51.238;9.562;2023-06-26T00:02:30;9.60;;;5.00;;
3415;SDS011;1721;51.238;9.562;2023-06-26T00:04:57;11.40;;;4.43;;
3415;SDS011;1721;51.238;9.562;2023-06-26T00:07:23;9.37;;;4.30;;
3415;SDS011;1721;51.238;9.562;2023-06-26T00:09:49;9.07;;;4.17;;
3415;SDS011;1721;51.238;9.562;2023-06-26T00:12:14;9.37;;;3.90;;
3415;SDS011;1721;51.238;9.562;2023-06-26T00:14:40;9.33;;;4.97;;
3415;SDS011;1721;51.238;9.562;2023-06-26T00:17:05;7.87;;;4.37;;
3415;SDS011;1721;51.238;9.562;2023-06-26T00:19:31;7.97;;;3.80;;
3415;SDS011;1721;51.238;9.562;2023-06-26T00:21:56;10.33;;;4.70;;
3415;SDS011;1721;51.238;9.562;2023-06-26T00:24:22;10.10;;;4.87;;
3415;SDS011;1721;51.238;9.562;2023-06-26T00:26:47;9.10;;;4.30;;
3415;SDS011;1721;51.238;9.562;2023-06-26T00:29:13;8.63;;;4.47;;
3415;SDS011;1721;51.238;9.562;2023-06-26T00:31:39;9.80;;;4.97;;
3415;SDS011;1721;51.238;9.562;2023-06-26T00:34:05;9.90;;;5.13;;
3415;SDS011;1721;51.238;9.562;2023-06-26T00:36:31;8.83;;;4.17;;
3415;SDS011;1721;51.238;9.562;2023-06-26T00:38:57;9.93;;;4.67;;
3415;SDS011;1721;51.238;9.562;2023-06-26T00:41:23;10.93;;;4.90;;
3415;SDS011;1721;51.238;9.562;2023-06-26T00:43:49;10.10;;;4.70;;
3415;SDS011;1721;51.238;9.562;2023-06-26T00:46:14;9.27;;;4.70;;
3415;SDS011;1721;51.238;9.562;2023-06-26T00:48:41;10.33;;;4.77;;
3415;SDS011;1721;51.238;9.562;2023-06-26T00:51:08;11.00;;;4.60;;
3415;SDS011;1721;51.238;9.562;2023-06-26T00:53:33;10.97;;;4.90;;
3415;SDS011;1721;51.238;9.562;2023-06-26T00:55:59;10.63;;;4.43;;
3415;SDS011;1721;51.238;9.562;2023-06-26T00:58:26;8.10;;;4.10;;
3415;SDS011;1721;51.238;9.562;2023-06-26T01:00:52;10.90;;;4.83;;
3415;SDS011;1721;51.238;9.562;2023-06-26T01:03:18;10.33;;;4.47;;
3415;SDS011;1721;51.238;9.562;2023-06-26T01:05:45;15.10;;;4.63;;
3415;SDS011;1721;51.238;9.562;2023-06-26T01:08:14;8.40;;;4.10;;
3415;SDS011;1721;51.238;9.562;2023-06-26T01:10:40;10.87;;;5.30;;
3415;SDS011;1721;51.238;9.562;2023-06-26T01:13:07;10.63;;;4.93;;
3415;SDS011;1721;51.238;9.562;2023-06-26T01:15:33;9.60;;;4.57;;
3415;SDS011;1721;51.238;9.562;2023-06-26T01:17:59;12.83;;;4.43;;
3415;SDS011;1721;51.238;9.562;2023-06-26T01:20:28;10.00;;;4.73;;
3415;SDS011;1721;51.238;9.562;2023-06-26T01:28:15;8.80;;;4.33;;
3415;SDS011;1721;51.238;9.562;2023-06-26T01:30:42;13.30;;;5.07;;
3415;SDS011;1721;51.238;9.562;2023-06-26T01:33:10;13.67;;;5.37;;
3415;SDS011;1721;51.238;9.562;2023-06-26T01:35:37;9.27;;;4.20;;
3415;SDS011;1721;51.238;9.562;2023-06-26T01:40:41;10.80;;;5.20;;
3415;SDS011;1721;51.238;9.562;2023-06-26T01:43:09;8.93;;;4.47;;
3415;SDS011;1721;51.238;9.562;2023-06-26T01:46:01;14.33;;;5.00;;
3415;SDS011;1721;51.238;9.562;2023-06-26T01:49:35;12.43;;;4.57;;
3415;SDS011;1721;51.238;9.562;2023-06-26T01:51:43;15.93;;;4.97;;
3415;SDS011;1721;51.238;9.562;2023-06-26T01:54:17;12.50;;;5.00;;
3415;SDS011;1721;51.238;9.562;2023-06-26T01:56:47;8.57;;;4.40;;
3415;SDS011;1721;51.238;9.562;2023-06-26T01:59:15;9.37;;;4.90;;
3415;SDS011;1721;51.238;9.562;2023-06-26T02:01:42;12.43;;;4.40;;
3415;SDS011;1721;51.238;9.562;2023-06-26T02:04:08;12.13;;;4.70;;
3415;SDS011;1721;51.238;9.562;2023-06-26T02:06:33;11.77;;;4.77;;
3415;SDS011;1721;51.238;9.562;2023-06-26T02:08:59;8.33;;;4.40;;
3415;SDS011;1721;51.238;9.562;2023-06-26T02:11:25;11.50;;;4.40;;
3415;SDS011;1721;51.238;9.562;2023-06-26T02:13:50;9.40;;;5.03;;
3415;SDS011;1721;51.238;9.562;2023-06-26T02:16:16;11.10;;;5.40;;
3415;SDS011;1721;51.238;9.562;2023-06-26T02:18:41;13.40;;;5.03;;
3415;SDS011;1721;51.238;9.562;2023-06-26T02:21:07;8.30;;;4.30;;
3415;SDS011;1721;51.238;9.562;2023-06-26T02:23:34;10.77;;;4.80;;
3415;SDS011;1721;51.238;9.562;2023-06-26T02:25:59;9.93;;;4.87;;
3415;SDS011;1721;51.238;9.562;2023-06-26T02:28:25;9.70;;;4.57;;
3415;SDS011;1721;51.238;9.562;2023-06-26T02:30:51;18.17;;;6.10;;
3415;SDS011;1721;51.238;9.562;2023-06-26T02:33:16;15.17;;;4.43;;
3415;SDS011;1721;51.238;9.562;2023-06-26T02:35:42;8.43;;;4.57;;
3415;SDS011;1721;51.238;9.562;2023-06-26T02:38:07;10.03;;;5.23;;
3415;SDS011;1721;51.238;9.562;2023-06-26T02:40:33;12.83;;;5.27;;
3415;SDS011;1721;51.238;9.562;2023-06-26T02:42:58;11.47;;;4.53;;
3415;SDS011;1721;51.238;9.562;2023-06-26T02:45:24;24.07;;;5.50;;
3415;SDS011;1721;51.238;9.562;2023-06-26T02:47:50;17.73;;;5.63;;
3415;SDS011;1721;51.238;9.562;2023-06-26T02:50:15;9.77;;;4.67;;
3415;SDS011;1721;51.238;9.562;2023-06-26T02:52:41;10.90;;;5.60;;
3415;SDS011;1721;51.238;9.562;2023-06-26T02:55:07;8.93;;;4.83;;
3415;SDS011;1721;51.238;9.562;2023-06-26T02:57:32;17.20;;;5.33;;
3415;SDS011;1721;51.238;9.562;2023-06-26T02:59:58;10.20;;;5.30;;
3415;SDS011;1721;51.238;9.562;2023-06-26T03:02:23;10.23;;;5.23;;
3415;SDS011;1721;51.238;9.562;2023-06-26T03:04:49;8.93;;;4.73;;
3415;SDS011;1721;51.238;9.562;2023-06-26T03:07:14;9.07;;;5.23;;
3415;SDS011;1721;51.238;9.562;2023-06-26T03:09:41;13.07;;;5.53;;
3415;SDS011;1721;51.238;9.562;2023-06-26T03:12:06;10.50;;;5.63;;
3415;SDS011;1721;51.238;9.562;2023-06-26T03:14:33;13.20;;;5.17;;
3415;SDS011;1721;51.238;9.562;2023-06-26T03:16:58;9.50;;;4.93;;
3415;SDS011;1721;51.238;9.562;2023-06-26T03:19:28;16.40;;;5.57;;
3415;SDS011;1721;51.238;9.562;2023-06-26T03:21:53;7.90;;;4.30;;
3415;SDS011;1721;51.238;9.562;2023-06-26T03:24:20;10.40;;;5.73;;
3415;SDS011;1721;51.238;9.562;2023-06-26T03:26:45;9.63;;;5.07;;
3415;SDS011;1721;51.238;9.562;2023-06-26T03:29:11;12.00;;;5.33;;
3415;SDS011;1721;51.238;9.562;2023-06-26T03:31:36;9.20;;;4.80;;
3415;SDS011;1721;51.238;9.562;2023-06-26T03:34:02;11.60;;;5.33;;
3415;SDS011;1721;51.238;9.562;2023-06-26T03:36:28;9.00;;;4.40;;
3415;SDS011;1721;51.238;9.562;2023-06-26T03:38:53;10.17;;;5.00;;
3415;SDS011;1721;51.238;9.562;2023-06-26T03:41:21;11.63;;;5.40;;
3415;SDS011;1721;51.238;9.562;2023-06-26T03:43:48;11.20;;;5.33;;
3415;SDS011;1721;51.238;9.562;2023-06-26T03:46:13;9.90;;;5.03;;
3415;SDS011;1721;51.238;9.562;2023-06-26T03:48:39;10.57;;;5.00;;
3415;SDS011;1721;51.238;9.562;2023-06-26T03:51:04;9.10;;;4.90;;
3415;SDS011;1721;51.238;9.562;2023-06-26T03:53:31;9.20;;;4.70;;
3415;SDS011;1721;51.238;9.562;2023-06-26T03:55:57;11.40;;;5.17;;
3415;SDS011;1721;51.238;9.562;2023-06-26T03:58:23;10.23;;;5.63;;
3415;SDS011;1721;51.238;9.562;2023-06-26T04:00:50;10.10;;;4.90;;
3415;SDS011;1721;51.238;9.562;2023-06-26T04:03:15;11.23;;;5.20;;
3415;SDS011;1721;51.238;9.562;2023-06-26T04:05:41;11.00;;;4.43;;
3415;SDS011;1721;51.238;9.562;2023-06-26T04:08:06;9.70;;;4.87;;
3415;SDS011;1721;51.238;9.562;2023-06-26T04:10:32;9.40;;;4.90;;
3415;SDS011;1721;51.238;9.562;2023-06-26T04:12:58;11.90;;;5.93;;
3415;SDS011;1721;51.238;9.562;2023-06-26T04:15:23;11.37;;;5.67;;
3415;SDS011;1721;51.238;9.562;2023-06-26T04:17:49;10.57;;;5.10;;
3415;SDS011;1721;51.238;9.562;2023-06-26T04:20:14;11.47;;;5.30;;
3415;SDS011;1721;51.238;9.562;2023-06-26T04:22:40;8.13;;;4.20;;
3415;SDS011;1721;51.238;9.562;2023-06-26T04:25:05;10.47;;;5.07;;
3415;SDS011;1721;51.238;9.562;2023-06-26T04:27:31;10.10;;;5.20;;
3415;SDS011;1721;51.238;9.562;2023-06-26T04:29:57;10.20;;;4.80;;
3415;SDS011;1721;51.238;9.562;2023-06-26T04:32:22;9.93;;;5.30;;
3415;SDS011;1721;51.238;9.562;2023-06-26T04:34:48;14.27;;;5.37;;
3415;SDS011;1721;51.238;9.562;2023-06-26T04:37:14;10.33;;;4.50;;
3415;SDS011;1721;51.238;9.562;2023-06-26T04:39:42;13.00;;;5.20;;
3415;SDS011;1721;51.238;9.562;2023-06-26T04:42:07;9.20;;;5.00;;
3415;SDS011;1721;51.238;9.562;2023-06-26T04:44:34;9.37;;;4.83;;
3415;SDS011;1721;51.238;9.562;2023-06-26T04:47:00;11.63;;;5.87;;
3415;SDS011;1721;51.238;9.562;2023-06-26T04:49:25;11.80;;;5.17;;
3415;SDS011;1721;51.238;9.562;2023-06-26T04:51:52;10.50;;;5.33;;
3415;SDS011;1721;51.238;9.562;2023-06-26T04:54:19;9.50;;;4.60;;
3415;SDS011;1721;51.238;9.562;2023-06-26T04:56:44;8.97;;;4.73;;
3415;SDS011;1721;51.238;9.562;2023-06-26T04:59:12;12.47;;;5.10;;
3415;SDS011;1721;51.238;9.562;2023-06-26T05:01:38;11.67;;;5.73;;
3415;SDS011;1721;51.238;9.562;2023-06-26T05:04:04;10.00;;;4.73;;
3415;SDS011;1721;51.238;9.562;2023-06-26T05:06:30;9.23;;;4.07;;
3415;SDS011;1721;51.238;9.562;2023-06-26T05:08:55;11.57;;;4.80;;
3415;SDS011;1721;51.238;9.562;2023-06-26T05:11:21;10.13;;;4.83;;
3415;SDS011;1721;51.238;9.562;2023-06-26T05:13:47;9.67;;;4.53;;
3415;SDS011;1721;51.238;9.562;2023-06-26T05:16:12;9.07;;;4.30;;
3415;SDS011;1721;51.238;9.562;2023-06-26T05:18:38;9.10;;;4.23;;
3415;SDS011;1721;51.238;9.562;2023-06-26T05:21:03;7.80;;;4.50;;
3415;SDS011;1721;51.238;9.562;2023-06-26T05:23:32;12.30;;;4.10;;
3415;SDS011;1721;51.238;9.562;2023-06-26T05:25:59;8.47;;;4.50;;
3415;SDS011;1721;51.238;9.562;2023-06-26T05:28:27;7.47;;;3.83;;
3415;SDS011;1721;51.238;9.562;2023-06-26T05:30:53;11.90;;;4.30;;
3415;SDS011;1721;51.238;9.562;2023-06-26T05:33:20;14.83;;;3.83;;
3415;SDS011;1721;51.238;9.562;2023-06-26T05:35:48;11.10;;;3.37;;
3415;SDS011;1721;51.238;9.562;2023-06-26T05:38:16;6.73;;;3.50;;
3415;SDS011;1721;51.238;9.562;2023-06-26T05:40:42;8.13;;;3.90;;
3415;SDS011;1721;51.238;9.562;2023-06-26T05:43:08;9.23;;;4.17;;
3415;SDS011;1721;51.238;9.562;2023-06-26T05:45:34;9.50;;;3.90;;
3415;SDS011;1721;51.238;9.562;2023-06-26T05:47:59;7.53;;;3.63;;
3415;SDS011;1721;51.238;9.562;2023-06-26T05:50:25;6.80;;;3.77;;
3415;SDS011;1721;51.238;9.562;2023-06-26T05:52:53;7.50;;;3.80;;
3415;SDS011;1721;51.238;9.562;2023-06-26T05:55:19;7.13;;;3.83;;
3415;SDS011;1721;51.238;9.562;2023-06-26T05:57:45;7.57;;;3.93;;
3415;SDS011;1721;51.238;9.562;2023-06-26T06:00:12;7.27;;;3.73;;
3415;SDS011;1721;51.238;9.562;2023-06-26T06:02:38;7.50;;;3.90;;
3415;SDS011;1721;51.238;9.562;2023-06-26T06:05:04;10.10;;;3.90;;
3415;SDS011;1721;51.238;9.562;2023-06-26T06:07:31;7.50;;;3.93;;
3415;SDS011;1721;51.238;9.562;2023-06-26T06:09:57;10.33;;;3.87;;
3415;SDS011;1721;51.238;9.562;2023-06-26T06:12:23;10.53;;;4.90;;
3415;SDS011;1721;51.238;9.562;2023-06-26T06:14:49;8.47;;;3.80;;
3415;SDS011;1721;51.238;9.562;2023-06-26T06:17:15;8.83;;;4.23;;
3415;SDS011;1721;51.238;9.562;2023-06-26T06:19:41;7.57;;;3.37;;
3415;SDS011;1721;51.238;9.562;2023-06-26T06:22:06;9.30;;;3.77;;
3415;SDS011;1721;51.238;9.562;2023-06-26T06:24:32;7.10;;;3.67;;
3415;SDS011;1721;51.238;9.562;2023-06-26T06:26:58;10.20;;;3.83;;
3415;SDS011;1721;51.238;9.562;2023-06-26T06:29:23;7.20;;;3.60;;
3415;SDS011;1721;51.238;9.562;2023-06-26T06:31:49;13.03;;;4.30;;
3415;SDS011;1721;51.238;9.562;2023-06-26T06:34:14;10.53;;;4.40;;
3415;SDS011;1721;51.238;9.562;2023-06-26T06:36:40;8.83;;;3.90;;
3415;SDS011;1721;51.238;9.562;2023-06-26T06:39:05;7.07;;;3.73;;
3415;SDS011;1721;51.238;9.562;2023-06-26T06:41:31;9.70;;;3.40;;
3415;SDS011;1721;51.238;9.562;2023-06-26T06:43:56;6.93;;;3.50;;
3415;SDS011;1721;51.238;9.562;2023-06-26T06:46:22;7.17;;;3.70;;
3415;SDS011;1721;51.238;9.562;2023-06-26T06:48:48;7.77;;;3.87;;
3415;SDS011;1721;51.238;9.562;2023-06-26T06:51:13;8.47;;;3.90;;
3415;SDS011;1721;51.238;9.562;2023-06-26T06:53:39;8.37;;;4.37;;
3415;SDS011;1721;51.238;9.562;2023-06-26T06:56:04;7.90;;;4.37;;
3415;SDS011;1721;51.238;9.562;2023-06-26T06:58:30;8.80;;;4.67;;
3415;SDS011;1721;51.238;9.562;2023-06-26T07:00:59;8.83;;;4.27;;
3415;SDS011;1721;51.238;9.562;2023-06-26T07:03:24;29.97;;;4.97;;
3415;SDS011;1721;51.238;9.562;2023-06-26T07:05:50;8.73;;;4.40;;
3415;SDS011;1721;51.238;9.562;2023-06-26T07:08:15;8.30;;;4.07;;
3415;SDS011;1721;51.238;9.562;2023-06-26T07:10:41;9.77;;;4.60;;
3415;SDS011;1721;51.238;9.562;2023-06-26T07:13:07;6.80;;;3.60;;
3415;SDS011;1721;51.238;9.562;2023-06-26T07:15:32;9.23;;;4.20;;
3415;SDS011;1721;51.238;9.562;2023-06-26T07:17:58;7.27;;;3.67;;
3415;SDS011;1721;51.238;9.562;2023-06-26T07:20:23;7.37;;;3.80;;
3415;SDS011;1721;51.238;9.562;2023-06-26T07:22:49;7.37;;;3.80;;
3415;SDS011;1721;51.238;9.562;2023-06-26T07:25:15;9.40;;;4.40;;
3415;SDS011;1721;51.238;9.562;2023-06-26T07:27:41;8.20;;;4.63;;
3415;SDS011;1721;51.238;9.562;2023-06-26T07:30:07;8.17;;;4.40;;
3415;SDS011;1721;51.238;9.562;2023-06-26T07:32:36;9.53;;;3.97;;
3415;SDS011;1721;51.238;9.562;2023-06-26T07:35:02;36.07;;;5.67;;
3415;SDS011;1721;51.238;9.562;2023-06-26T07:37:28;9.10;;;4.37;;
3415;SDS011;1721;51.238;9.562;2023-06-26T07:39:53;10.13;;;4.87;;
3415;SDS011;1721;51.238;9.562;2023-06-26T07:42:19;7.90;;;4.10;;
3415;SDS011;1721;51.238;9.562;2023-06-26T07:44:44;14.10;;;4.80;;
3415;SDS011;1721;51.238;9.562;2023-06-26T07:47:10;8.00;;;4.17;;
3415;SDS011;1721;51.238;9.562;2023-06-26T07:49:36;17.27;;;4.70;;
3415;SDS011;1721;51.238;9.562;2023-06-26T07:52:02;9.00;;;4.00;;
3415;SDS011;1721;51.238;9.562;2023-06-26T07:54:28;8.63;;;3.87;;
3415;SDS011;1721;51.238;9.562;2023-06-26T07:56:58;10.50;;;5.10;;
3415;SDS011;1721;51.238;9.562;2023-06-26T07:59:29;9.67;;;3.93;;
3415;SDS011;1721;51.238;9.562;2023-06-26T08:01:55;8.40;;;4.30;;
3415;SDS011;1721;51.238;9.562;2023-06-26T08:04:22;8.60;;;4.03;;
3415;SDS011;1721;51.238;9.562;2023-06-26T08:06:52;12.30;;;4.93;;
3415;SDS011;1721;51.238;9.562;2023-06-26T08:09:21;10.83;;;4.47;;
3415;SDS011;1721;51.238;9.562;2023-06-26T08:11:48;9.87;;;4.80;;
3415;SDS011;1721;51.238;9.562;2023-06-26T08:14:14;9.27;;;4.20;;
3415;SDS011;1721;51.238;9.562;2023-06-26T08:16:40;8.57;;;4.93;;
3415;SDS011;1721;51.238;9.562;2023-06-26T08:19:06;9.47;;;4.33;;
3415;SDS011;1721;51.238;9.562;2023-06-26T08:21:32;9.13;;;5.10;;
3415;SDS011;1721;51.238;9.562;2023-06-26T08:23:58;13.33;;;5.57;;
3415;SDS011;1721;51.238;9.562;2023-06-26T08:26:24;8.03;;;4.20;;
3415;SDS011;1721;51.238;9.562;2023-06-26T08:28:49;10.20;;;4.80;;
3415;SDS011;1721;51.238;9.562;2023-06-26T08:31:15;8.50;;;4.00;;
3415;SDS011;1721;51.238;9.562;2023-06-26T08:33:41;10.77;;;4.40;;
3415;SDS011;1721;51.238;9.562;2023-06-26T08:36:07;12.93;;;5.20;;
3415;SDS011;1721;51.238;9.562;2023-06-26T08:38:32;9.00;;;4.93;;
3415;SDS011;1721;51.238;9.562;2023-06-26T08:40:58;10.40;;;4.60;;
3415;SDS011;1721;51.238;9.562;2023-06-26T08:43:24;12.77;;;4.80;;
3415;SDS011;1721;51.238;9.562;2023-06-26T08:45:51;7.97;;;4.70;;
3415;SDS011;1721;51.238;9.562;2023-06-26T08:48:18;10.60;;;4.80;;
3415;SDS011;1721;51.238;9.562;2023-06-26T08:50:45;9.80;;;4.70;;
3415;SDS011;1721;51.238;9.562;2023-06-26T08:53:25;9.33;;;4.60;;
3415;SDS011;1721;51.238;9.562;2023-06-26T08:56:03;9.93;;;5.50;;
3415;SDS011;1721;51.238;9.562;2023-06-26T08:58:29;9.27;;;4.70;;
3415;SDS011;1721;51.238;9.562;2023-06-26T09:00:55;9.10;;;4.83;;
3415;SDS011;1721;51.238;9.562;2023-06-26T09:03:21;10.20;;;4.93;;
3415;SDS011;1721;51.238;9.562;2023-06-26T09:05:50;9.60;;;5.60;;
3415;SDS011;1721;51.238;9.562;2023-06-26T09:08:15;15.07;;;5.80;;
3415;SDS011;1721;51.238;9.562;2023-06-26T09:10:41;12.90;;;4.80;;
3415;SDS011;1721;51.238;9.562;2023-06-26T09:13:06;10.93;;;5.80;;
3415;SDS011;1721;51.238;9.562;2023-06-26T09:15:38;9.50;;;4.90;;
3415;SDS011;1721;51.238;9.562;2023-06-26T09:18:08;9.37;;;5.10;;
3415;SDS011;1721;51.238;9.562;2023-06-26T09:20:33;11.90;;;5.70;;
3415;SDS011;1721;51.238;9.562;2023-06-26T09:23:00;9.90;;;4.90;;
3415;SDS011;1721;51.238;9.562;2023-06-26T09:25:27;9.43;;;5.17;;
3415;SDS011;1721;51.238;9.562;2023-06-26T09:27:53;9.73;;;5.20;;
3415;SDS011;1721;51.238;9.562;2023-06-26T09:30:19;9.73;;;5.20;;
3415;SDS011;1721;51.238;9.562;2023-06-26T09:32:45;16.80;;;5.90;;
3415;SDS011;1721;51.238;9.562;2023-06-26T09:35:11;9.83;;;5.30;;
3415;SDS011;1721;51.238;9.562;2023-06-26T09:37:36;11.00;;;5.13;;
3415;SDS011;1721;51.238;9.562;2023-06-26T09:40:02;11.83;;;5.90;;
3415;SDS011;1721;51.238;9.562;2023-06-26T09:42:29;13.97;;;6.07;;
3415;SDS011;1721;51.238;9.562;2023-06-26T09:44:55;14.23;;;5.47;;
3415;SDS011;1721;51.238;9.562;2023-06-26T09:47:21;14.67;;;5.43;;
3415;SDS011;1721;51.238;9.562;2023-06-26T09:49:47;9.80;;;5.23;;
3415;SDS011;1721;51.238;9.562;2023-06-26T09:52:14;10.13;;;4.87;;
3415;SDS011;1721;51.238;9.562;2023-06-26T09:54:41;10.20;;;5.33;;
3415;SDS011;1721;51.238;9.562;2023-06-26T09:57:09;10.73;;;5.07;;
3415;SDS011;1721;51.238;9.562;2023-06-26T09:59:35;13.00;;;5.73;;
3415;SDS011;1721;51.238;9.562;2023-06-26T10:02:01;11.73;;;5.87;;
3415;SDS011;1721;51.238;9.562;2023-06-26T10:04:27;11.60;;;5.40;;
3415;SDS011;1721;51.238;9.562;2023-06-26T10:06:54;9.47;;;4.97;;
3415;SDS011;1721;51.238;9.562;2023-06-26T10:09:22;8.80;;;4.70;;
3415;SDS011;1721;51.238;9.562;2023-06-26T10:11:55;14.30;;;5.63;;
3415;SDS011;1721;51.238;9.562;2023-06-26T10:14:23;13.47;;;5.93;;
3415;SDS011;1721;51.238;9.562;2023-06-26T10:16:52;9.20;;;4.73;;
3415;SDS011;1721;51.238;9.562;2023-06-26T10:19:23;11.73;;;5.37;;
3415;SDS011;1721;51.238;9.562;2023-06-26T10:21:54;9.60;;;5.00;;
3415;SDS011;1721;51.238;9.562;2023-06-26T10:24:21;9.33;;;4.70;;
3415;SDS011;1721;51.238;9.562;2023-06-26T10:26:59;10.13;;;4.77;;
3415;SDS011;1721;51.238;9.562;2023-06-26T10:29:44;11.60;;;5.23;;
3415;SDS011;1721;51.238;9.562;2023-06-26T10:32:14;8.50;;;4.87;;
3415;SDS011;1721;51.238;9.562;2023-06-26T10:34:41;10.40;;;5.40;;
3415;SDS011;1721;51.238;9.562;2023-06-26T10:37:07;9.10;;;5.03;;
3415;SDS011;1721;51.238;9.562;2023-06-26T10:39:54;8.20;;;4.87;;
3415;SDS011;1721;51.238;9.562;2023-06-26T10:42:34;10.40;;;5.53;;
3415;SDS011;1721;51.238;9.562;2023-06-26T10:45:23;11.43;;;6.07;;
3415;SDS011;1721;51.238;9.562;2023-06-26T10:47:46;14.10;;;7.13;;
3415;SDS011;1721;51.238;9.562;2023-06-26T10:50:17;11.80;;;6.97;;
3415;SDS011;1721;51.238;9.562;2023-06-26T10:52:54;16.90;;;7.70;;
3415;SDS011;1721;51.238;9.562;2023-06-26T10:55:59;14.97;;;8.13;;
3415;SDS011;1721;51.238;9.562;2023-06-26T11:03:41;16.00;;;9.00;;
3415;SDS011;1721;51.238;9.562;2023-06-26T11:06:09;22.37;;;10.20;;
3415;SDS011;1721;51.238;9.562;2023-06-26T11:11:10;22.20;;;9.30;;
3415;SDS011;1721;51.238;9.562;2023-06-26T11:13:36;17.73;;;9.90;;
3415;SDS011;1721;51.238;9.562;2023-06-26T11:16:02;21.53;;;9.50;;
3415;SDS011;1721;51.238;9.562;2023-06-26T11:18:30;16.00;;;8.73;;
3415;SDS011;1721;51.238;9.562;2023-06-26T11:21:04;16.37;;;9.17;;
3415;SDS011;1721;51.238;9.562;2023-06-26T11:23:33;15.10;;;8.13;;
3415;SDS011;1721;51.238;9.562;2023-06-26T11:26:19;21.70;;;8.10;;
3415;SDS011;1721;51.238;9.562;2023-06-26T11:33:58;13.60;;;6.10;;
3415;SDS011;1721;51.238;9.562;2023-06-26T11:36:26;21.53;;;7.07;;
3415;SDS011;1721;51.238;9.562;2023-06-26T11:38:53;13.30;;;6.70;;
3415;SDS011;1721;51.238;9.562;2023-06-26T11:41:26;14.17;;;7.13;;
3415;SDS011;1721;51.238;9.562;2023-06-26T11:43:53;13.20;;;7.00;;
3415;SDS011;1721;51.238;9.562;2023-06-26T11:46:20;17.43;;;7.60;;
3415;SDS011;1721;51.238;9.562;2023-06-26T11:48:46;16.20;;;7.67;;
3415;SDS011;1721;51.238;9.562;2023-06-26T11:51:13;15.30;;;8.37;;
3415;SDS011;1721;51.238;9.562;2023-06-26T11:53:42;13.07;;;7.37;;
3415;SDS011;1721;51.238;9.562;2023-06-26T11:56:09;14.87;;;8.07;;
3415;SDS011;1721;51.238;9.562;2023-06-26T11:58:54;15.40;;;8.07;;
3415;SDS011;1721;51.238;9.562;2023-06-26T12:01:20;11.87;;;7.30;;
3415;SDS011;1721;51.238;9.562;2023-06-26T12:03:47;13.70;;;6.83;;
3415;SDS011;1721;51.238;9.562;2023-06-26T12:06:13;21.90;;;7.87;;
3415;SDS011;1721;51.238;9.562;2023-06-26T12:08:39;14.67;;;7.93;;
3415;SDS011;1721;51.238;9.562;2023-06-26T12:11:05;16.23;;;7.57;;
3415;SDS011;1721;51.238;9.562;2023-06-26T12:13:31;14.33;;;7.17;;
3415;SDS011;1721;51.238;9.562;2023-06-26T12:15:57;16.13;;;7.00;;
3415;SDS011;1721;51.238;9.562;2023-06-26T12:18:23;11.37;;;6.50;;
3415;SDS011;1721;51.238;9.562;2023-06-26T12:20:50;14.27;;;6.73;;
3415;SDS011;1721;51.238;9.562;2023-06-26T12:23:16;13.27;;;6.87;;
3415;SDS011;1721;51.238;9.562;2023-06-26T12:25:42;19.90;;;7.20;;
3415;SDS011;1721;51.238;9.562;2023-06-26T12:28:18;14.87;;;7.13;;
3415;SDS011;1721;51.238;9.562;2023-06-26T12:30:47;14.30;;;7.30;;
3415;SDS011;1721;51.238;9.562;2023-06-26T12:33:33;12.60;;;6.50;;
3415;SDS011;1721;51.238;9.562;2023-06-26T12:35:58;18.73;;;7.67;;
3415;SDS011;1721;51.238;9.562;2023-06-26T12:38:32;10.93;;;7.20;;
3415;SDS011;1721;51.238;9.562;2023-06-26T12:40:58;14.17;;;6.47;;
3415;SDS011;1721;51.238;9.562;2023-06-26T12:43:25;12.97;;;6.77;;
3415;SDS011;1721;51.238;9.562;2023-06-26T12:45:55;12.57;;;6.27;;
3415;SDS011;1721;51.238;9.562;2023-06-26T12:48:21;17.37;;;7.37;;
3415;SDS011;1721;51.238;9.562;2023-06-26T12:51:07;19.40;;;7.40;;
3415;SDS011;1721;51.238;9.562;2023-06-26T12:53:36;19.13;;;8.07;;
3415;SDS011;1721;51.238;9.562;2023-06-26T12:56:02;14.87;;;8.83;;
3415;SDS011;1721;51.238;9.562;2023-06-26T12:58:27;13.83;;;7.47;;
3415;SDS011;1721;51.238;9.562;2023-06-26T13:00:53;15.27;;;8.27;;
3415;SDS011;1721;51.238;9.562;2023-06-26T13:03:19;14.90;;;8.37;;
3415;SDS011;1721;51.238;9.562;2023-06-26T13:05:48;15.07;;;8.20;;
3415;SDS011;1721;51.238;9.562;2023-06-26T13:08:13;16.43;;;7.97;;
3415;SDS011;1721;51.238;9.562;2023-06-26T13:10:42;12.93;;;7.10;;
3415;SDS011;1721;51.238;9.562;2023-06-26T13:13:09;15.83;;;8.60;;
3415;SDS011;1721;51.238;9.562;2023-06-26T13:15:37;15.83;;;8.43;;
3415;SDS011;1721;51.238;9.562;2023-06-26T13:18:03;15.10;;;7.40;;
3415;SDS011;1721;51.238;9.562;2023-06-26T13:20:29;21.80;;;7.77;;
3415;SDS011;1721;51.238;9.562;2023-06-26T13:22:54;15.03;;;7.63;;
3415;SDS011;1721;51.238;9.562;2023-06-26T13:25:20;15.73;;;7.70;;
3415;SDS011;1721;51.238;9.562;2023-06-26T13:27:46;16.03;;;8.60;;
3415;SDS011;1721;51.238;9.562;2023-06-26T13:30:13;17.70;;;8.47;;
3415;SDS011;1721;51.238;9.562;2023-06-26T13:32:40;16.43;;;9.07;;
3415;SDS011;1721;51.238;9.562;2023-06-26T13:35:05;16.17;;;9.50;;
3415;SDS011;1721;51.238;9.562;2023-06-26T13:37:31;17.63;;;9.47;;
3415;SDS011;1721;51.238;9.562;2023-06-26T13:39:59;17.40;;;8.97;;
3415;SDS011;1721;51.238;9.562;2023-06-26T13:42:26;20.23;;;9.10;;
3415;SDS011;1721;51.238;9.562;2023-06-26T13:44:52;23.93;;;9.70;;
3415;SDS011;1721;51.238;9.562;2023-06-26T13:47:17;15.30;;;9.10;;
3415;SDS011;1721;51.238;9.562;2023-06-26T13:49:43;16.57;;;8.70;;
3415;SDS011;1721;51.238;9.562;2023-06-26T13:52:09;16.83;;;8.70;;
3415;SDS011;1721;51.238;9.562;2023-06-26T13:54:37;12.43;;;7.50;;
3415;SDS011;1721;51.238;9.562;2023-06-26T13:57:05;13.20;;;7.70;;
3415;SDS011;1721;51.238;9.562;2023-06-26T13:59:31;13.80;;;7.70;;
3415;SDS011;1721;51.238;9.562;2023-06-26T14:01:57;19.50;;;6.83;;
3415;SDS011;1721;51.238;9.562;2023-06-26T14:04:24;17.23;;;6.80;;
3415;SDS011;1721;51.238;9.562;2023-06-26T14:06:49;17.50;;;6.27;;
3415;SDS011;1721;51.238;9.562;2023-06-26T14:09:15;12.40;;;6.43;;
3415;SDS011;1721;51.238;9.562;2023-06-26T14:11:41;15.00;;;6.17;;
3415;SDS011;1721;51.238;9.562;2023-06-26T14:14:06;17.53;;;6.10;;
3415;SDS011;1721;51.238;9.562;2023-06-26T14:16:32;9.80;;;5.30;;
3415;SDS011;1721;51.238;9.562;2023-06-26T14:18:58;14.97;;;4.90;;
3415;SDS011;1721;51.238;9.562;2023-06-26T14:21:23;10.87;;;5.50;;
3415;SDS011;1721;51.238;9.562;2023-06-26T14:23:49;12.77;;;5.33;;
3415;SDS011;1721;51.238;9.562;2023-06-26T14:26:14;9.50;;;5.23;;
3415;SDS011;1721;51.238;9.562;2023-06-26T14:28:40;10.57;;;4.57;;
3415;SDS011;1721;51.238;9.562;2023-06-26T14:31:06;14.80;;;5.13;;
3415;SDS011;1721;51.238;9.562;2023-06-26T14:33:31;12.67;;;4.00;;
3415;SDS011;1721;51.238;9.562;2023-06-26T14:35:57;9.97;;;4.53;;
3415;SDS011;1721;51.238;9.562;2023-06-26T14:38:22;7.67;;;3.93;;
3415;SDS011;1721;51.238;9.562;2023-06-26T14:40:48;11.13;;;4.50;;
3415;SDS011;1721;51.238;9.562;2023-06-26T14:43:14;12.50;;;3.67;;
3415;SDS011;1721;51.238;9.562;2023-06-26T14:45:39;9.67;;;4.70;;
3415;SDS011;1721;51.238;9.562;2023-06-26T14:48:05;9.87;;;3.70;;
3415;SDS011;1721;51.238;9.562;2023-06-26T14:50:31;9.10;;;3.80;;
3415;SDS011;1721;51.238;9.562;2023-06-26T14:52:56;9.17;;;3.60;;
3415;SDS011;1721;51.238;9.562;2023-06-26T14:55:22;8.33;;;3.27;;
3415;SDS011;1721;51.238;9.562;2023-06-26T14:57:48;9.83;;;3.70;;
3415;SDS011;1721;51.238;9.562;2023-06-26T15:00:14;11.50;;;3.90;;
3415;SDS011;1721;51.238;9.562;2023-06-26T15:02:40;8.57;;;3.10;;
3415;SDS011;1721;51.238;9.562;2023-06-26T15:05:06;11.67;;;3.77;;
3415;SDS011;1721;51.238;9.562;2023-06-26T15:07:32;11.23;;;3.47;;
3415;SDS011;1721;51.238;9.562;2023-06-26T15:09:58;9.47;;;3.73;;
3415;SDS011;1721;51.238;9.562;2023-06-26T15:12:24;7.60;;;2.83;;
3415;SDS011;1721;51.238;9.562;2023-06-26T15:14:49;13.70;;;3.20;;
3415;SDS011;1721;51.238;9.562;2023-06-26T15:17:16;10.17;;;3.53;;
3415;SDS011;1721;51.238;9.562;2023-06-26T15:19:42;7.93;;;2.80;;
3415;SDS011;1721;51.238;9.562;2023-06-26T15:22:07;13.10;;;3.40;;
3415;SDS011;1721;51.238;9.562;2023-06-26T15:24:33;11.20;;;3.30;;
3415;SDS011;1721;51.238;9.562;2023-06-26T15:26:58;7.50;;;2.80;;